createdAt,value
2023-03-16T00:21:40.104Z,14.6
2023-03-16T00:28:01.124Z,14.8
2023-03-16T00:43:22.147Z,12.3
2023-03-16T00:48:11.620Z,11.2
2023-03-16T00:53:15.177Z,11.2
2023-03-16T00:59:11.887Z,12.4
2023-03-16T01:05:36.708Z,18.7
2023-03-16T01:10:40.280Z,12.7
2023-03-16T01:15:42.576Z,11.5
2023-03-16T01:20:44.604Z,10.6
2023-03-16T01:25:46.646Z,9.7
2023-03-16T01:30:48.896Z,9.4
2023-03-16T01:35:51.178Z,10.1
2023-03-16T01:40:53.723Z,10.7
2023-03-16T01:45:56.401Z,10.4
2023-03-16T01:50:57.290Z,9.8
2023-03-16T01:55:59.523Z,9.8
2023-03-16T02:01:01.706Z,9.7
2023-03-16T02:06:03.858Z,9.7
2023-03-16T02:11:06.072Z,9.6
2023-03-16T02:16:08.336Z,8.9
2023-03-16T02:21:10.878Z,9.6
2023-03-16T02:26:13.179Z,9.7
2023-03-16T02:31:15.985Z,9
2023-03-16T02:36:18.652Z,9.6
2023-03-16T02:41:21.129Z,10.1
2023-03-16T02:46:24.053Z,10.1
2023-03-16T02:51:28.468Z,9.2
2023-03-16T02:56:35.974Z,10
2023-03-16T03:01:49.529Z,9.3
2023-03-16T03:06:47.160Z,9.5
2023-03-16T03:11:49.558Z,8.8
2023-03-16T03:16:51.793Z,8.8
2023-03-16T03:21:54.110Z,9.1
2023-03-16T03:26:56.464Z,9.3
2023-03-16T03:31:59.303Z,10
2023-03-16T03:37:02.132Z,10.4
2023-03-16T03:42:07.210Z,10.1
2023-03-16T03:47:09.738Z,9.6
2023-03-16T03:52:12.612Z,9.7
2023-03-16T03:57:15.565Z,9.3
2023-03-16T04:02:24.973Z,9.1
2023-03-16T04:07:35.994Z,10
2023-03-16T04:12:28.536Z,10
2023-03-16T04:17:30.847Z,9.7
2023-03-16T04:22:33.023Z,9.6
2023-03-16T04:27:35.137Z,10
2023-03-16T04:32:38.442Z,9.4
2023-03-16T04:37:41.101Z,10.4
2023-03-16T04:42:43.475Z,10.6
2023-03-16T04:47:45.734Z,9.8
2023-03-16T04:52:48.183Z,10
2023-03-16T04:57:50.250Z,10.2
2023-03-16T05:02:52.295Z,12.2
2023-03-16T05:07:54.680Z,10.6
2023-03-16T05:12:56.850Z,10
2023-03-16T05:17:59.052Z,14.9
2023-03-16T05:22:59.600Z,9.2
2023-03-16T05:28:01.770Z,10
2023-03-16T05:33:04.251Z,10.2
2023-03-16T05:38:06.837Z,10.1
2023-03-16T05:43:09.075Z,10.4
2023-03-16T05:48:11.492Z,9.8
2023-03-16T05:53:13.694Z,10.1
2023-03-16T05:58:15.797Z,11.3
2023-03-16T06:03:18.007Z,11.9
2023-03-16T06:08:20.273Z,10.4
2023-03-16T06:13:22.363Z,10.4
2023-03-16T06:18:24.520Z,9.9
2023-03-16T06:23:26.952Z,12.2
2023-03-16T06:28:29.347Z,11.6
2023-03-16T06:33:33.713Z,14
2023-03-16T06:38:36.103Z,18.9
2023-03-16T06:43:38.252Z,10.4
2023-03-16T06:48:40.545Z,10.6
2023-03-16T06:53:43.096Z,8.9
2023-03-16T06:58:45.299Z,7.9
2023-03-16T07:03:47.362Z,6.2
2023-03-16T07:08:49.488Z,12.6
2023-03-16T07:13:51.548Z,10.7
2023-03-16T07:18:53.501Z,2.7
2023-03-16T07:23:55.596Z,2.7
2023-03-16T07:28:59.162Z,2.9
2023-03-16T07:33:59.952Z,2.9
2023-03-16T07:39:02.123Z,3
2023-03-16T07:44:04.210Z,2.8
2023-03-16T07:49:06.235Z,2.8
2023-03-16T07:54:08.482Z,3.1
2023-03-16T07:59:10.783Z,3.2
2023-03-16T08:04:13.017Z,3
2023-03-16T08:09:15.412Z,3.4
2023-03-16T08:14:17.460Z,3.1
2023-03-16T08:19:22.773Z,3.2
2023-03-16T08:24:25.148Z,2.7
2023-03-16T08:29:27.203Z,3
2023-03-16T08:34:29.140Z,3.1
2023-03-16T08:39:31.239Z,3.2
2023-03-16T08:44:33.280Z,3.2
2023-03-16T08:49:35.444Z,3.2
2023-03-16T08:54:37.719Z,3.4
2023-03-16T08:59:39.750Z,2.9
2023-03-16T09:04:41.951Z,2.8
2023-03-16T09:09:44.370Z,2.8
2023-03-16T09:14:46.433Z,2.6
2023-03-16T09:19:54.454Z,3
2023-03-16T09:24:55.300Z,3
2023-03-16T09:29:57.362Z,2.8
2023-03-16T09:34:59.443Z,2.7
2023-03-16T09:40:12.086Z,2.7
2023-03-16T09:45:04.405Z,3.1
2023-03-16T09:50:06.884Z,2.9
2023-03-16T09:55:09.336Z,3
2023-03-16T10:00:11.464Z,2.7
2023-03-16T10:05:13.494Z,2.9
2023-03-16T10:10:15.497Z,2.9
2023-03-16T10:15:17.655Z,2.7
2023-03-16T10:20:20.146Z,2.9
2023-03-16T10:25:22.325Z,2.7
2023-03-16T10:30:24.375Z,3.2
2023-03-16T10:35:26.863Z,2.7
2023-03-16T10:40:30.437Z,3
2023-03-16T10:45:33.181Z,2.9
2023-03-16T10:50:35.515Z,2.5
2023-03-16T10:55:37.957Z,2.4
2023-03-16T11:00:40.005Z,2.6
2023-03-16T11:05:42.119Z,2.7
2023-03-16T11:10:56.418Z,2.6
2023-03-16T11:15:48.751Z,2.9
2023-03-16T11:20:50.854Z,2.4
2023-03-16T11:25:53.012Z,2.6
2023-03-16T11:30:55.313Z,2.6
2023-03-16T11:36:00.464Z,3
2023-03-16T11:41:03.228Z,2.3
2023-03-16T11:46:05.640Z,3.1
2023-03-16T11:51:08.136Z,2.3
2023-03-16T11:56:10.559Z,2.2
2023-03-16T12:01:12.638Z,2.3
2023-03-16T12:06:24.388Z,2.1
2023-03-16T12:11:54.288Z,2.2
2023-03-16T12:16:35.912Z,2.4
2023-03-16T12:21:33.750Z,2.4
2023-03-16T12:26:42.609Z,2.3
2023-03-16T12:51:35.211Z,2.3
2023-03-16T12:56:37.884Z,2.4
2023-03-16T13:01:40.238Z,2.8
2023-03-16T13:11:51.415Z,2.4
2023-03-16T13:16:54.341Z,2.3
2023-03-16T13:21:57.112Z,2.4
2023-03-16T13:26:59.391Z,2.5
2023-03-16T13:32:01.849Z,2.4
2023-03-16T13:37:04.287Z,2.3
2023-03-16T13:42:06.707Z,2.2
2023-03-16T13:47:09.074Z,3.1
2023-03-16T13:52:11.497Z,2.7
2023-03-16T13:57:13.971Z,2.9
2023-03-16T14:02:15.987Z,3.3
2023-03-16T14:07:18.522Z,3
2023-03-16T14:12:20.875Z,2.7
2023-03-16T14:17:23.077Z,2.5
2023-03-16T14:22:25.263Z,2.9
2023-03-16T14:27:27.291Z,2.2
2023-03-16T14:32:29.799Z,2.3
2023-03-16T14:37:37.455Z,2.5
2023-03-16T14:42:41.235Z,2.3
2023-03-16T14:47:43.340Z,2.4
2023-03-16T14:52:45.352Z,2.2
2023-03-16T14:57:47.541Z,3.1
2023-03-16T15:02:52.377Z,2.4
2023-03-16T15:08:01.980Z,2.4
2023-03-16T15:13:04.414Z,2.4
2023-03-16T15:18:06.502Z,2.9
2023-03-16T15:23:08.953Z,2.9
2023-03-16T15:28:11.509Z,3.1
2023-03-16T15:33:13.968Z,2.6
2023-03-16T15:38:16.061Z,2.6
2023-03-16T15:43:18.333Z,2.4
2023-03-16T15:48:23.239Z,2.5
2023-03-16T15:53:33.658Z,2.4
2023-03-16T15:58:25.370Z,2.7
2023-03-16T16:03:26.044Z,2.5
2023-03-16T16:08:26.468Z,3.3
2023-03-16T16:13:44.469Z,3.3
2023-03-16T16:18:35.446Z,3.4
2023-03-16T16:23:36.178Z,4.4
2023-03-16T16:28:36.620Z,4.1
2023-03-16T16:33:37.098Z,5.2
2023-03-16T16:38:37.657Z,5.8
2023-03-16T16:43:38.188Z,4.2
2023-03-16T16:48:38.608Z,5.5
2023-03-16T16:53:39.107Z,7.5
2023-03-16T16:58:39.758Z,6.9
2023-03-16T17:03:40.297Z,5.4
2023-03-16T17:08:40.713Z,4.7
2023-03-16T17:13:41.201Z,6
2023-03-16T17:18:41.634Z,5.8
2023-03-16T17:23:42.159Z,5.6
2023-03-16T17:28:42.557Z,6.7
2023-03-16T17:33:43.115Z,6.4
2023-03-16T17:38:43.629Z,5.9
2023-03-16T17:43:44.112Z,4.7
2023-03-16T17:48:44.590Z,4.4
2023-03-16T17:53:48.229Z,4.2
2023-03-16T17:58:54.841Z,4.2
2023-03-16T18:03:55.362Z,4.6
2023-03-16T18:08:55.903Z,4.7
2023-03-16T18:13:56.372Z,4.9
2023-03-16T18:18:56.801Z,5.5
2023-03-16T18:23:57.390Z,6.5
2023-03-16T18:28:57.855Z,5.9
2023-03-16T18:33:58.706Z,5.6
2023-03-16T18:38:59.153Z,4.8
2023-03-16T18:43:59.777Z,4.7
2023-03-16T18:49:00.374Z,4.5
2023-03-16T18:54:00.877Z,5.1
2023-03-16T18:59:01.461Z,5.4
2023-03-16T19:04:05.259Z,5.7
2023-03-16T19:09:05.777Z,5.6
2023-03-16T19:14:06.267Z,6.6
2023-03-16T19:19:06.628Z,8.2
2023-03-16T19:24:07.092Z,13.2
2023-03-16T19:29:07.932Z,10.9
2023-03-16T19:34:08.424Z,10.5
2023-03-16T19:39:08.974Z,13.6
2023-03-16T19:44:53.686Z,12.5
2023-03-16T19:49:14.276Z,11
2023-03-16T19:54:14.728Z,8.7
2023-03-16T19:59:15.838Z,8.2
2023-03-16T20:04:16.659Z,9.6
2023-03-16T20:09:17.184Z,13.9
2023-03-16T20:14:21.524Z,17.4
2023-03-16T20:19:23.499Z,10.5
2023-03-16T20:24:23.931Z,12.4
2023-03-16T20:29:24.475Z,12.6
2023-03-16T20:34:24.983Z,12
2023-03-16T20:39:25.571Z,13.8
2023-03-16T20:44:25.947Z,14.1
2023-03-16T20:49:26.409Z,15.9
2023-03-16T20:54:27.005Z,21.5
2023-03-16T20:59:27.459Z,23.6
2023-03-16T21:04:28.200Z,26.2
2023-03-16T21:09:28.610Z,26.4
2023-03-16T21:14:29.014Z,24.5
2023-03-16T21:19:29.501Z,19.3
2023-03-16T21:24:29.973Z,19.8
2023-03-16T21:29:30.488Z,18.7
2023-03-16T21:34:30.999Z,18.1
2023-03-16T21:39:31.453Z,17.4
2023-03-16T21:44:31.895Z,22.9
2023-03-16T21:49:32.354Z,23.3
2023-03-16T21:54:32.934Z,24.4
2023-03-16T21:59:33.325Z,26.1
2023-03-16T22:04:33.814Z,27.7
2023-03-16T22:09:34.268Z,27.8
2023-03-16T22:14:34.694Z,29.4
2023-03-16T22:19:35.226Z,27.3
2023-03-16T22:24:35.944Z,24.8
2023-03-16T22:29:36.424Z,19.4
2023-03-16T22:34:36.813Z,28
2023-03-16T22:39:37.268Z,27.5
2023-03-16T22:44:37.712Z,24
2023-03-16T22:49:38.095Z,23.8
2023-03-16T22:54:38.685Z,25.6
2023-03-16T22:59:39.094Z,24
2023-03-16T23:04:39.907Z,19.1
2023-03-16T23:09:40.287Z,19.2
2023-03-16T23:14:40.728Z,18.1
2023-03-16T23:19:41.153Z,23.2
2023-03-16T23:24:41.577Z,18.6
2023-03-16T23:29:41.970Z,22
2023-03-16T23:34:42.392Z,17.9
2023-03-16T23:39:42.798Z,17.3
2023-03-16T23:44:43.189Z,22.3
2023-03-16T23:49:43.713Z,19
2023-03-16T23:54:44.327Z,19.1
2023-03-16T23:59:44.758Z,20.2
